createdAt,value
2023-03-27T00:00:54.333Z,4.07
2023-03-27T00:03:57.971Z,4.43
2023-03-27T00:07:00.631Z,5.12
2023-03-27T00:10:03.709Z,8.05
2023-03-27T00:13:08.631Z,6.70
2023-03-27T00:16:12.017Z,7.57
2023-03-27T00:19:14.889Z,7.35
2023-03-27T00:22:18.322Z,8.27
2023-03-27T00:25:26.953Z,7.95
2023-03-27T00:28:30.448Z,7.28
2023-03-27T00:31:33.675Z,7.90
2023-03-27T00:34:37.779Z,6.10
2023-03-27T00:37:42.123Z,7.03
2023-03-27T00:40:47.227Z,7.28
2023-03-27T00:43:54.702Z,6.40
2023-03-27T00:46:58.223Z,5.30
2023-03-27T00:50:06.897Z,6.00
2023-03-27T00:53:16.235Z,5.75
2023-03-27T00:56:19.261Z,4.40
2023-03-27T00:59:27.656Z,6.00
2023-03-27T01:02:30.557Z,7.20
2023-03-27T01:05:35.192Z,5.43
2023-03-27T01:08:38.452Z,5.70
2023-03-27T01:12:09.506Z,7.32
2023-03-27T01:15:25.763Z,6.05
2023-03-27T01:19:00.622Z,6.67
2023-03-27T01:22:37.692Z,9.35
2023-03-27T01:26:09.000Z,16.27
2023-03-27T01:29:47.285Z,15.45
2023-03-27T01:33:02.951Z,8.98
2023-03-27T01:36:27.683Z,8.07
2023-03-27T01:39:56.729Z,8.38
2023-03-27T01:42:59.514Z,8.10
2023-03-27T01:46:19.858Z,7.75
2023-03-27T01:49:31.041Z,8.25
2023-03-27T01:52:38.627Z,6.50
2023-03-27T01:55:47.495Z,7.97
2023-03-27T01:58:51.644Z,7.47
2023-03-27T02:02:15.751Z,6.37
2023-03-27T02:05:29.536Z,7.95
2023-03-27T02:08:40.112Z,5.73
2023-03-27T02:11:57.028Z,6.20
2023-03-27T02:15:24.045Z,7.80
2023-03-27T02:18:37.222Z,5.45
2023-03-27T02:21:40.127Z,7.65
2023-03-27T02:24:43.758Z,7.43
2023-03-27T02:27:50.359Z,7.72
2023-03-27T02:31:05.825Z,8.00
2023-03-27T02:35:03.726Z,7.78
2023-03-27T02:38:26.408Z,8.05
2023-03-27T02:41:57.618Z,8.33
2023-03-27T02:45:24.516Z,8.07
2023-03-27T02:48:34.425Z,10.65
2023-03-27T02:51:43.830Z,9.15
2023-03-27T02:54:53.389Z,9.25
2023-03-27T02:58:03.002Z,10.20
2023-03-27T03:01:11.108Z,11.65
2023-03-27T03:04:20.438Z,11.20
2023-03-27T03:07:27.609Z,11.30
2023-03-27T03:10:31.584Z,10.57
2023-03-27T03:13:34.437Z,9.80
2023-03-27T03:16:37.571Z,11.07
2023-03-27T03:19:41.045Z,10.48
2023-03-27T03:22:44.430Z,9.93
2023-03-27T03:25:52.895Z,11.00
2023-03-27T03:29:00.396Z,12.20
2023-03-27T03:32:06.552Z,10.23
2023-03-27T03:35:10.467Z,11.27
2023-03-27T03:38:13.475Z,10.27
2023-03-27T03:41:17.075Z,9.45
2023-03-27T03:44:20.525Z,12.27
2023-03-27T03:47:23.849Z,12.37
2023-03-27T03:50:26.806Z,11.12
2023-03-27T03:53:30.097Z,14.35
2023-03-27T03:56:34.712Z,11.35
2023-03-27T03:59:38.047Z,12.00
2023-03-27T04:02:43.886Z,11.40
2023-03-27T04:05:48.235Z,12.68
2023-03-27T04:08:51.866Z,10.27
2023-03-27T04:11:57.216Z,10.75
2023-03-27T04:15:00.655Z,10.40
2023-03-27T04:18:05.315Z,10.48
2023-03-27T04:21:15.019Z,11.65
2023-03-27T04:24:18.551Z,9.50
2023-03-27T04:27:21.522Z,10.00
2023-03-27T04:30:26.228Z,10.23
2023-03-27T04:33:39.624Z,11.25
2023-03-27T04:36:44.856Z,11.73
2023-03-27T04:39:47.814Z,11.07
2023-03-27T04:42:51.212Z,9.73
2023-03-27T04:45:55.002Z,12.57
2023-03-27T04:48:58.496Z,10.68
2023-03-27T04:52:01.946Z,13.18
2023-03-27T04:55:07.030Z,12.05
2023-03-27T04:58:10.184Z,11.45
2023-03-27T05:01:13.848Z,10.60
2023-03-27T05:04:18.607Z,11.48
2023-03-27T05:07:23.397Z,9.68
2023-03-27T05:10:27.054Z,10.30
2023-03-27T05:13:30.901Z,11.40
2023-03-27T05:16:36.122Z,11.23
2023-03-27T05:19:40.225Z,9.93
2023-03-27T05:22:43.782Z,10.48
2023-03-27T05:26:00.479Z,10.00
2023-03-27T05:29:09.257Z,10.68
2023-03-27T05:32:13.028Z,9.50
2023-03-27T05:35:18.303Z,11.30
2023-03-27T05:38:23.058Z,11.55
2023-03-27T05:41:26.549Z,10.98
2023-03-27T05:44:29.924Z,9.43
2023-03-27T05:47:32.886Z,10.23
2023-03-27T05:50:36.732Z,10.10
2023-03-27T05:53:40.143Z,9.52
2023-03-27T05:56:45.529Z,9.80
2023-03-27T05:59:49.118Z,13.82
2023-03-27T06:02:57.711Z,9.57
2023-03-27T06:06:10.956Z,8.95
2023-03-27T06:09:14.131Z,10.88
2023-03-27T06:12:19.032Z,9.65
2023-03-27T06:15:21.882Z,7.22
2023-03-27T06:18:26.092Z,10.10
2023-03-27T06:21:29.631Z,11.27
2023-03-27T06:24:33.633Z,10.30
2023-03-27T06:27:38.192Z,12.63
2023-03-27T06:30:42.444Z,9.85
2023-03-27T06:33:50.232Z,9.83
2023-03-27T06:36:53.856Z,7.60
2023-03-27T06:39:57.840Z,7.47
2023-03-27T06:43:07.118Z,7.72
2023-03-27T06:46:10.943Z,8.25
2023-03-27T06:49:21.531Z,14.27
2023-03-27T06:52:24.752Z,10.30
2023-03-27T06:55:34.550Z,10.68
2023-03-27T06:58:37.642Z,10.18
2023-03-27T07:01:44.184Z,12.35
2023-03-27T07:05:01.597Z,9.93
2023-03-27T07:08:22.562Z,9.85
2023-03-27T07:11:28.956Z,10.10
2023-03-27T07:14:33.943Z,10.32
2023-03-27T07:17:48.189Z,10.70
2023-03-27T07:20:53.404Z,10.13
2023-03-27T07:23:56.663Z,11.25
2023-03-27T07:27:02.874Z,11.45
2023-03-27T07:30:08.264Z,11.93
2023-03-27T07:33:13.100Z,19.45
2023-03-27T07:36:16.496Z,12.53
2023-03-27T07:39:19.715Z,11.60
2023-03-27T07:42:22.807Z,10.10
2023-03-27T07:45:26.835Z,14.27
2023-03-27T07:48:31.601Z,14.30
2023-03-27T07:51:35.558Z,14.83
2023-03-27T07:54:38.613Z,11.40
2023-03-27T07:57:59.856Z,12.32
2023-03-27T08:01:04.973Z,9.63
2023-03-27T08:04:08.836Z,14.48
2023-03-27T08:07:12.766Z,16.40
2023-03-27T08:10:16.347Z,12.07
2023-03-27T08:13:20.968Z,11.68
2023-03-27T08:16:29.322Z,10.85
2023-03-27T08:19:33.692Z,10.32
2023-03-27T08:22:38.476Z,10.37
2023-03-27T08:25:50.705Z,18.35
2023-03-27T08:28:56.325Z,10.88
2023-03-27T08:31:59.593Z,8.90
2023-03-27T08:35:04.209Z,9.50
2023-03-27T08:38:11.295Z,9.10
2023-03-27T08:41:28.666Z,10.45
2023-03-27T08:44:35.651Z,9.90
2023-03-27T08:47:47.014Z,8.68
2023-03-27T08:51:09.610Z,12.18
2023-03-27T08:54:26.069Z,10.50
2023-03-27T08:57:31.856Z,8.70
2023-03-27T09:00:40.851Z,14.25
2023-03-27T09:03:47.660Z,11.05
2023-03-27T09:07:11.867Z,11.93
2023-03-27T09:10:25.750Z,10.80
2023-03-27T09:13:46.649Z,10.75
2023-03-27T09:16:52.201Z,12.20
2023-03-27T09:20:07.484Z,10.77
2023-03-27T09:23:19.129Z,13.30
2023-03-27T09:26:34.911Z,13.50
2023-03-27T09:29:41.851Z,13.38
2023-03-27T09:32:52.064Z,14.57
2023-03-27T09:35:58.128Z,12.02
2023-03-27T09:39:08.249Z,16.65
2023-03-27T09:42:26.598Z,18.53
2023-03-27T09:45:31.162Z,14.32
2023-03-27T09:48:47.312Z,12.23
2023-03-27T09:51:52.628Z,13.60
2023-03-27T09:54:56.418Z,11.80
2023-03-27T09:58:35.655Z,11.50
2023-03-27T10:01:50.778Z,12.15
2023-03-27T10:04:59.817Z,10.02
2023-03-27T10:08:27.273Z,8.95
2023-03-27T10:11:34.024Z,11.73
2023-03-27T10:14:50.537Z,9.70
2023-03-27T10:17:56.522Z,10.95
2023-03-27T10:21:06.977Z,9.75
2023-03-27T10:24:27.988Z,9.00
2023-03-27T10:27:36.112Z,8.43
2023-03-27T10:30:42.555Z,11.03
2023-03-27T10:33:46.466Z,9.38
2023-03-27T10:36:50.948Z,8.43
2023-03-27T10:40:00.256Z,11.85
2023-03-27T10:43:14.144Z,9.50
2023-03-27T10:46:24.096Z,7.33
2023-03-27T10:49:44.341Z,9.30
2023-03-27T10:53:13.605Z,7.78
2023-03-27T10:56:31.384Z,8.85
2023-03-27T10:59:43.242Z,7.22
2023-03-27T11:03:02.548Z,8.53
2023-03-27T11:06:12.290Z,9.82
2023-03-27T11:09:24.603Z,12.02
2023-03-27T11:12:32.879Z,10.45
2023-03-27T11:15:42.519Z,11.20
2023-03-27T11:19:02.813Z,11.93
2023-03-27T11:22:17.901Z,9.20
2023-03-27T11:25:38.232Z,8.88
2023-03-27T11:29:10.525Z,11.50
2023-03-27T11:32:28.539Z,12.63
2023-03-27T11:35:38.537Z,12.00
2023-03-27T11:38:48.608Z,13.40
2023-03-27T11:42:02.079Z,14.00
2023-03-27T11:45:09.461Z,9.60
2023-03-27T11:48:24.725Z,11.07
2023-03-27T11:51:42.048Z,9.63
2023-03-27T11:55:00.818Z,8.60
2023-03-27T11:58:42.230Z,7.50
2023-03-27T12:01:51.856Z,6.62
2023-03-27T12:05:21.197Z,5.40
2023-03-27T12:08:38.200Z,4.27
2023-03-27T12:11:47.695Z,5.22
2023-03-27T12:14:53.663Z,5.15
2023-03-27T12:18:09.305Z,5.37
2023-03-27T12:21:31.296Z,4.10
2023-03-27T12:24:57.045Z,3.93
2023-03-27T12:28:30.015Z,4.20
2023-03-27T12:32:05.641Z,4.72
2023-03-27T12:35:21.842Z,3.60
2023-03-27T12:38:37.600Z,3.70
2023-03-27T12:41:45.610Z,2.90
2023-03-27T12:45:16.318Z,3.12
2023-03-27T12:48:20.532Z,3.00
2023-03-27T12:51:44.006Z,4.37
2023-03-27T12:55:12.207Z,2.97
2023-03-27T12:58:35.286Z,3.67
2023-03-27T13:05:08.647Z,5.55
2023-03-27T13:08:34.494Z,4.65
2023-03-27T13:12:02.956Z,3.70
2023-03-27T13:15:31.813Z,6.00
2023-03-27T13:18:38.179Z,4.00
2023-03-27T13:22:13.402Z,6.97
2023-03-27T13:25:35.611Z,4.12
2023-03-27T13:28:40.567Z,3.58
2023-03-27T13:31:45.494Z,6.03
2023-03-27T13:35:24.008Z,5.75
2023-03-27T13:38:46.308Z,3.78
2023-03-27T13:42:13.185Z,3.00
2023-03-27T13:45:25.741Z,3.55
2023-03-27T13:49:13.067Z,3.20
2023-03-27T13:52:27.895Z,2.72
2023-03-27T13:55:49.304Z,3.95
2023-03-27T13:58:54.344Z,2.83
2023-03-27T14:02:15.144Z,4.00
2023-03-27T14:05:57.119Z,3.50
2023-03-27T14:09:16.259Z,3.83
2023-03-27T14:12:29.455Z,3.12
2023-03-27T14:15:43.101Z,3.72
2023-03-27T14:19:08.441Z,4.07
2023-03-27T14:22:29.587Z,3.93
2023-03-27T14:25:40.286Z,3.80
2023-03-27T14:29:04.412Z,3.33
2023-03-27T14:32:15.878Z,3.22
2023-03-27T14:35:45.306Z,2.80
2023-03-27T14:38:48.887Z,5.90
2023-03-27T14:42:01.893Z,3.87
2023-03-27T14:45:09.272Z,5.07
2023-03-27T14:48:31.245Z,3.20
2023-03-27T14:51:38.040Z,3.50
2023-03-27T14:54:54.409Z,3.53
2023-03-27T14:58:11.129Z,4.50
2023-03-27T15:01:17.464Z,5.07
2023-03-27T15:04:26.831Z,3.58
2023-03-27T15:07:35.391Z,3.45
2023-03-27T15:10:40.230Z,3.97
2023-03-27T15:13:48.002Z,3.67
2023-03-27T15:17:00.476Z,4.30
2023-03-27T15:20:14.799Z,4.95
2023-03-27T15:23:33.851Z,3.60
2023-03-27T15:26:37.611Z,4.97
2023-03-27T15:29:46.558Z,4.28
2023-03-27T15:32:52.657Z,7.28
2023-03-27T15:35:57.189Z,7.37
2023-03-27T15:39:01.795Z,4.55
2023-03-27T15:42:15.492Z,4.40
2023-03-27T15:45:38.507Z,4.25
2023-03-27T15:48:46.110Z,4.65
2023-03-27T15:51:49.512Z,4.53
2023-03-27T15:54:56.518Z,4.00
2023-03-27T15:58:02.161Z,4.37
2023-03-27T16:01:23.956Z,4.22
2023-03-27T16:04:48.594Z,3.37
2023-03-27T16:07:52.428Z,3.97
2023-03-27T16:10:56.461Z,4.18
2023-03-27T16:13:59.873Z,6.53
2023-03-27T16:17:11.894Z,4.10
2023-03-27T16:20:23.999Z,4.50
2023-03-27T16:23:28.450Z,3.55
2023-03-27T16:26:32.859Z,3.62
2023-03-27T16:29:37.132Z,4.50
2023-03-27T16:32:41.886Z,4.30
2023-03-27T16:35:46.295Z,4.22
2023-03-27T16:38:49.566Z,3.83
2023-03-27T16:41:53.479Z,5.03
2023-03-27T16:44:56.566Z,4.90
2023-03-27T16:48:01.524Z,3.50
2023-03-27T16:51:05.001Z,4.35
2023-03-27T16:54:10.389Z,3.50
2023-03-27T16:57:14.970Z,3.78
2023-03-27T17:00:20.443Z,4.07
2023-03-27T17:03:24.008Z,3.62
2023-03-27T17:06:28.777Z,5.22
2023-03-27T17:09:33.394Z,3.95
2023-03-27T17:12:37.020Z,5.78
2023-03-27T17:15:40.961Z,2.67
2023-03-27T17:18:44.778Z,3.85
2023-03-27T17:21:48.082Z,4.00
2023-03-27T17:24:57.254Z,5.12
2023-03-27T17:28:00.808Z,3.22
2023-03-27T17:31:05.800Z,4.00
2023-03-27T17:34:09.898Z,5.20
2023-03-27T17:37:13.349Z,3.62
2023-03-27T17:40:16.642Z,2.95
2023-03-27T17:43:21.266Z,3.60
2023-03-27T17:46:26.291Z,3.17
2023-03-27T17:49:32.051Z,4.15
2023-03-27T17:52:38.209Z,4.78
2023-03-27T17:55:43.577Z,4.78
2023-03-27T17:58:49.311Z,5.80
2023-03-27T18:01:53.138Z,4.57
2023-03-27T18:04:56.959Z,4.43
2023-03-27T18:08:00.741Z,6.37
2023-03-27T18:11:10.045Z,3.97
2023-03-27T18:14:14.808Z,3.70
2023-03-27T18:17:21.656Z,3.67
2023-03-27T18:20:25.570Z,5.72
2023-03-27T18:23:30.000Z,4.78
2023-03-27T18:26:33.665Z,3.87
2023-03-27T18:29:37.850Z,4.10
2023-03-27T18:32:44.428Z,4.90
2023-03-27T18:35:56.047Z,5.10
2023-03-27T18:38:59.593Z,5.03
2023-03-27T18:42:04.379Z,6.07
2023-03-27T18:45:09.701Z,6.60
2023-03-27T18:48:16.933Z,4.10
2023-03-27T18:51:24.694Z,3.97
2023-03-27T18:54:28.959Z,5.50
2023-03-27T18:57:35.139Z,6.37
2023-03-27T19:00:39.696Z,3.85
2023-03-27T19:03:46.004Z,3.47
2023-03-27T19:06:51.434Z,4.28
2023-03-27T19:10:00.143Z,3.47
2023-03-27T19:13:11.706Z,3.53
2023-03-27T19:16:17.208Z,4.82
2023-03-27T19:19:23.584Z,3.83
2023-03-27T19:22:34.017Z,3.60
2023-03-27T19:25:40.227Z,4.35
2023-03-27T19:28:48.342Z,4.55
2023-03-27T19:31:55.474Z,4.55
2023-03-27T19:35:04.059Z,4.30
2023-03-27T19:38:08.848Z,4.35
2023-03-27T19:41:13.240Z,4.20
2023-03-27T19:44:20.598Z,3.83
2023-03-27T19:47:27.884Z,3.97
2023-03-27T19:50:33.970Z,5.27
2023-03-27T19:53:39.372Z,4.15
2023-03-27T19:56:45.428Z,4.43
2023-03-27T19:59:49.055Z,3.37
2023-03-27T20:02:54.480Z,3.47
2023-03-27T20:06:07.039Z,4.00
2023-03-27T20:09:13.230Z,3.80
2023-03-27T20:12:20.482Z,3.30
2023-03-27T20:15:25.394Z,3.15
2023-03-27T20:18:33.450Z,3.10
2023-03-27T20:21:40.313Z,4.82
2023-03-27T20:24:46.566Z,3.60
2023-03-27T20:27:49.736Z,3.90
2023-03-27T20:30:53.704Z,3.80
2023-03-27T20:33:57.736Z,5.10
2023-03-27T20:37:03.960Z,3.80
2023-03-27T20:40:11.916Z,4.57
2023-03-27T20:43:15.734Z,4.80
2023-03-27T20:46:19.151Z,4.57
2023-03-27T20:52:34.475Z,4.62
2023-03-27T20:55:49.610Z,6.15
2023-03-27T20:59:00.154Z,6.45
2023-03-27T21:02:04.393Z,4.87
2023-03-27T21:05:07.708Z,4.53
2023-03-27T21:08:12.907Z,3.55
2023-03-27T21:11:15.814Z,5.60
2023-03-27T21:14:19.021Z,6.03
2023-03-27T21:17:21.957Z,4.80
2023-03-27T21:20:25.060Z,2.90
2023-03-27T21:23:27.968Z,3.58
2023-03-27T21:26:31.170Z,3.87
2023-03-27T21:29:34.261Z,3.47
2023-03-27T21:32:37.570Z,3.97
2023-03-27T21:35:44.232Z,2.63
2023-03-27T21:38:47.444Z,4.10
2023-03-27T21:41:50.207Z,4.53
2023-03-27T21:44:56.514Z,3.90
2023-03-27T21:48:00.349Z,3.00
2023-03-27T21:51:05.943Z,3.50
2023-03-27T21:54:08.813Z,4.10
2023-03-27T21:57:11.896Z,5.15
2023-03-27T22:00:15.993Z,3.05
2023-03-27T22:03:19.538Z,4.28
2023-03-27T22:06:22.450Z,3.20
2023-03-27T22:09:25.822Z,3.20
2023-03-27T22:12:28.740Z,4.90
2023-03-27T22:15:32.035Z,3.55
2023-03-27T22:18:34.758Z,4.22
2023-03-27T22:21:38.095Z,4.87
2023-03-27T22:24:41.186Z,4.87
2023-03-27T22:27:44.532Z,3.85
2023-03-27T22:30:47.339Z,3.10
2023-03-27T22:33:51.106Z,3.92
2023-03-27T22:36:54.046Z,3.40
2023-03-27T22:39:57.005Z,4.62
2023-03-27T22:42:59.770Z,3.55
2023-03-27T22:46:14.223Z,5.47
2023-03-27T22:49:17.266Z,3.10
2023-03-27T22:52:20.900Z,4.93
2023-03-27T22:55:23.870Z,4.50
2023-03-27T22:58:28.007Z,2.83
2023-03-27T23:01:31.141Z,3.85
2023-03-27T23:04:34.451Z,4.83
2023-03-27T23:07:37.456Z,3.35
2023-03-27T23:10:40.644Z,3.45
2023-03-27T23:13:43.555Z,2.78
2023-03-27T23:16:46.731Z,3.58
2023-03-27T23:19:49.717Z,3.53
2023-03-27T23:22:53.229Z,3.92
2023-03-27T23:25:58.027Z,4.37
2023-03-27T23:29:01.381Z,3.53
2023-03-27T23:32:04.195Z,3.95
2023-03-27T23:35:10.926Z,4.53
2023-03-27T23:38:13.744Z,4.70
2023-03-27T23:41:17.408Z,5.20
2023-03-27T23:44:20.218Z,3.45
2023-03-27T23:47:23.701Z,4.20
2023-03-27T23:50:26.791Z,4.03
2023-03-27T23:53:30.768Z,3.95
2023-03-27T23:56:33.753Z,6.65
2023-03-27T23:59:38.011Z,4.93
